createdAt,value
2024-01-07T00:01:52.093Z,98270.78
2024-01-07T00:04:19.736Z,98279.91
2024-01-07T00:06:48.002Z,98288.53
2024-01-07T00:09:15.129Z,98281.75
2024-01-07T00:11:42.335Z,98276.25
2024-01-07T00:14:09.573Z,98265.97
2024-01-07T00:16:36.612Z,98259.25
2024-01-07T00:19:03.958Z,98251.94
2024-01-07T00:21:31.109Z,98242.41
2024-01-07T00:23:58.106Z,98231.09
2024-01-07T00:26:24.981Z,98217.69
2024-01-07T00:28:51.889Z,98227.44
2024-01-07T00:31:19.060Z,98233.44
2024-01-07T00:33:46.716Z,98255.47
2024-01-07T00:36:13.824Z,98257.25
2024-01-07T00:38:40.749Z,98231.53
2024-01-07T00:41:07.752Z,98221.78
2024-01-07T00:43:34.634Z,98222.88
2024-01-07T00:46:01.710Z,98210.44
2024-01-07T00:48:28.956Z,98211.25
2024-01-07T00:50:56.516Z,98212.78
2024-01-07T00:53:23.496Z,98219.91
2024-01-07T00:55:50.462Z,98215.56
2024-01-07T00:58:18.469Z,98197.66
2024-01-07T01:00:45.642Z,98198.84
2024-01-07T01:03:12.664Z,98192.25
2024-01-07T01:05:40.118Z,98181.63
2024-01-07T01:08:07.141Z,98176.06
2024-01-07T01:10:34.142Z,98166.03
2024-01-07T01:13:01.110Z,98173.50
2024-01-07T01:15:28.215Z,98155.63
2024-01-07T01:17:55.209Z,98153.41
2024-01-07T01:20:22.129Z,98136.19
2024-01-07T01:22:49.576Z,98122.88
2024-01-07T01:25:16.568Z,98101.25
2024-01-07T01:27:43.544Z,98076.31
2024-01-07T01:30:11.312Z,98078.09
2024-01-07T01:32:38.573Z,98067.22
2024-01-07T01:35:06.738Z,98077.38
2024-01-07T01:37:36.703Z,98088.88
2024-01-07T01:40:05.521Z,98095.63
2024-01-07T01:42:32.675Z,98071.78
2024-01-07T01:45:02.790Z,98082.38
2024-01-07T01:47:31.920Z,98069.97
2024-01-07T01:50:00.048Z,98044.44
2024-01-07T01:52:28.251Z,98052.66
2024-01-07T01:54:55.953Z,98047.09
2024-01-07T01:57:25.977Z,98045.16
2024-01-07T01:59:53.073Z,98048.22
2024-01-07T02:02:20.126Z,98043.97
2024-01-07T02:04:47.138Z,98040.50
2024-01-07T02:07:14.341Z,98032.94
2024-01-07T02:09:42.646Z,98041.34
2024-01-07T02:12:12.980Z,98030.00
2024-01-07T02:14:40.666Z,98018.53
2024-01-07T02:17:08.407Z,98011.38
2024-01-07T02:19:35.539Z,97986.19
2024-01-07T02:22:02.648Z,97990.09
2024-01-07T02:24:29.679Z,97987.41
2024-01-07T02:26:58.222Z,97950.16
2024-01-07T02:29:25.959Z,97944.59
2024-01-07T02:31:52.889Z,97935.91
2024-01-07T02:34:20.034Z,97936.19
2024-01-07T02:36:47.156Z,97936.09
2024-01-07T02:39:14.103Z,97935.91
2024-01-07T02:41:40.961Z,97923.22
2024-01-07T02:44:10.079Z,97913.22
2024-01-07T02:46:38.608Z,97904.56
2024-01-07T02:49:05.627Z,97888.16
2024-01-07T02:51:32.585Z,97890.09
2024-01-07T02:53:59.503Z,97895.34
2024-01-07T02:56:26.420Z,97902.75
2024-01-07T02:58:53.374Z,97901.84
2024-01-07T03:01:24.158Z,97896.19
2024-01-07T03:03:52.143Z,97879.00
2024-01-07T03:06:19.090Z,97868.19
2024-01-07T03:08:46.082Z,97864.22
2024-01-07T03:11:12.989Z,97860.81
2024-01-07T03:13:41.472Z,97869.44
2024-01-07T03:16:08.888Z,97861.78
2024-01-07T03:18:36.056Z,97859.19
2024-01-07T03:21:03.042Z,97855.00
2024-01-07T03:23:29.982Z,97861.72
2024-01-07T03:25:59.505Z,97856.47
2024-01-07T03:28:26.417Z,97851.25
2024-01-07T03:30:53.534Z,97844.53
2024-01-07T03:33:20.610Z,97842.34
2024-01-07T03:35:47.594Z,97846.50
2024-01-07T03:38:14.508Z,97847.00
2024-01-07T03:40:41.761Z,97841.75
2024-01-07T03:43:08.896Z,97844.03
2024-01-07T03:45:37.145Z,97843.72
2024-01-07T03:48:04.301Z,97845.19
2024-01-07T03:50:31.365Z,97842.72
2024-01-07T03:52:58.204Z,97847.19
2024-01-07T03:55:25.207Z,97850.91
2024-01-07T03:57:54.647Z,97849.66
2024-01-07T04:00:22.137Z,97847.56
2024-01-07T04:02:48.985Z,97851.16
2024-01-07T04:05:16.343Z,97836.25
2024-01-07T04:07:43.344Z,97837.00
2024-01-07T04:10:10.721Z,97819.69
2024-01-07T04:12:38.268Z,97806.97
2024-01-07T04:15:06.407Z,97801.97
2024-01-07T04:17:33.371Z,97787.88
2024-01-07T04:20:00.419Z,97778.91
2024-01-07T04:22:27.540Z,97767.19
2024-01-07T04:24:54.737Z,97750.38
2024-01-07T04:27:21.849Z,97746.53
2024-01-07T04:29:48.993Z,97724.34
2024-01-07T04:32:16.184Z,97736.81
2024-01-07T04:34:43.495Z,97770.69
2024-01-07T04:37:11.823Z,97763.00
2024-01-07T04:39:39.127Z,97757.84
2024-01-07T04:42:07.784Z,97776.34
2024-01-07T04:44:36.053Z,97768.19
2024-01-07T04:47:03.179Z,97784.22
2024-01-07T04:49:30.394Z,97787.94
2024-01-07T04:51:57.519Z,97801.34
2024-01-07T04:54:25.118Z,97814.81
2024-01-07T04:56:52.253Z,97802.41
2024-01-07T04:59:19.449Z,97798.22
2024-01-07T05:01:46.648Z,97798.44
2024-01-07T05:04:14.500Z,97790.25
2024-01-07T05:06:41.926Z,97774.63
2024-01-07T05:09:09.132Z,97765.94
2024-01-07T05:11:41.470Z,97784.13
2024-01-07T05:14:08.556Z,97801.28
2024-01-07T05:16:35.608Z,97792.03
2024-01-07T05:19:02.921Z,97781.97
2024-01-07T05:21:30.436Z,97796.44
2024-01-07T05:23:57.575Z,97791.53
2024-01-07T05:26:24.692Z,97785.09
2024-01-07T05:28:51.770Z,97785.88
2024-01-07T05:31:20.114Z,97803.03
2024-01-07T05:33:47.480Z,97820.75
2024-01-07T05:36:15.051Z,97820.09
2024-01-07T05:38:45.224Z,97817.66
2024-01-07T05:41:12.388Z,97816.34
2024-01-07T05:43:39.432Z,97817.84
2024-01-07T05:46:06.797Z,97821.16
2024-01-07T05:48:47.929Z,97815.31
2024-01-07T05:51:16.046Z,97800.06
2024-01-07T05:53:45.036Z,97807.28
2024-01-07T05:56:12.797Z,97811.50
2024-01-07T05:58:40.232Z,97818.81
2024-01-07T06:01:10.093Z,97813.94
2024-01-07T06:03:37.914Z,97806.84
2024-01-07T06:06:05.787Z,97798.84
2024-01-07T06:08:32.971Z,97795.34
2024-01-07T06:11:00.029Z,97789.00
2024-01-07T06:13:27.091Z,97790.63
2024-01-07T06:15:54.589Z,97790.69
2024-01-07T06:18:23.038Z,97799.78
2024-01-07T06:20:50.733Z,97794.94
2024-01-07T06:23:17.905Z,97783.41
2024-01-07T06:25:45.084Z,97771.13
2024-01-07T06:28:12.305Z,97781.88
2024-01-07T06:30:39.605Z,97812.41
2024-01-07T06:33:07.001Z,97809.06
2024-01-07T06:35:34.263Z,97807.94
2024-01-07T06:38:01.324Z,97822.63
2024-01-07T06:40:28.542Z,97813.13
2024-01-07T06:42:55.697Z,97800.56
2024-01-07T06:45:22.885Z,97810.91
2024-01-07T06:47:50.157Z,97818.50
2024-01-07T06:50:17.748Z,97813.59
2024-01-07T06:52:44.963Z,97808.06
2024-01-07T06:55:12.275Z,97814.34
2024-01-07T06:57:39.472Z,97814.75
2024-01-07T07:00:08.397Z,97818.75
2024-01-07T07:02:35.658Z,97826.84
2024-01-07T07:05:02.805Z,97833.47
2024-01-07T07:07:30.058Z,97833.63
2024-01-07T07:09:57.273Z,97826.91
2024-01-07T07:12:24.418Z,97828.16
2024-01-07T07:14:51.555Z,97845.63
2024-01-07T07:17:20.128Z,97853.97
2024-01-07T07:19:48.732Z,97872.06
2024-01-07T07:22:16.296Z,97876.66
2024-01-07T07:24:44.203Z,97878.19
2024-01-07T07:27:11.480Z,97885.69
2024-01-07T07:29:38.635Z,97892.28
2024-01-07T07:32:06.591Z,97885.44
2024-01-07T07:34:34.345Z,97875.44
2024-01-07T07:37:01.530Z,97882.38
2024-01-07T07:39:28.699Z,97873.63
2024-01-07T07:41:55.909Z,97874.16
2024-01-07T07:44:23.097Z,97870.34
2024-01-07T07:46:50.229Z,97867.31
2024-01-07T07:49:18.167Z,97867.59
2024-01-07T07:51:48.224Z,97863.56
2024-01-07T07:54:15.539Z,97875.72
2024-01-07T07:56:44.110Z,97880.81
2024-01-07T07:59:11.815Z,97883.78
2024-01-07T08:01:39.112Z,97877.78
2024-01-07T08:04:07.110Z,97880.00
2024-01-07T08:06:34.242Z,97868.56
2024-01-07T08:09:01.456Z,97864.91
2024-01-07T08:11:30.697Z,97861.91
2024-01-07T08:13:58.787Z,97861.69
2024-01-07T08:16:25.845Z,97849.56
2024-01-07T08:18:53.818Z,97857.66
2024-01-07T08:21:21.470Z,97852.81
2024-01-07T08:23:48.727Z,97847.91
2024-01-07T08:26:21.052Z,97855.06
2024-01-07T08:28:49.487Z,97853.31
2024-01-07T08:31:16.877Z,97855.34
2024-01-07T08:33:44.252Z,97852.25
2024-01-07T08:36:11.517Z,97854.41
2024-01-07T08:38:38.614Z,97846.75
2024-01-07T08:41:06.314Z,97849.16
2024-01-07T08:43:36.394Z,97853.78
2024-01-07T08:46:08.855Z,97857.69
2024-01-07T08:48:36.185Z,97879.88
2024-01-07T08:51:05.429Z,97871.16
2024-01-07T08:53:33.997Z,97879.56
2024-01-07T08:56:01.088Z,97872.91
2024-01-07T08:58:28.077Z,97866.97
2024-01-07T09:00:55.131Z,97873.47
2024-01-07T09:03:22.182Z,97869.09
2024-01-07T09:05:49.322Z,97865.38
2024-01-07T09:08:18.684Z,97869.16
2024-01-07T09:10:45.810Z,97870.31
2024-01-07T09:13:13.090Z,97859.09
2024-01-07T09:15:40.495Z,97865.16
2024-01-07T09:18:09.935Z,97867.53
2024-01-07T09:20:37.346Z,97862.28
2024-01-07T09:23:04.476Z,97855.91
2024-01-07T09:25:31.527Z,97853.66
2024-01-07T09:27:59.123Z,97857.09
2024-01-07T09:30:26.211Z,97850.25
2024-01-07T09:32:53.258Z,97843.88
2024-01-07T09:35:20.299Z,97841.94
2024-01-07T09:37:47.282Z,97830.63
2024-01-07T09:40:20.623Z,97826.84
2024-01-07T09:42:48.135Z,97822.31
2024-01-07T09:45:15.770Z,97805.72
2024-01-07T09:47:48.330Z,97806.88
2024-01-07T09:50:15.692Z,97800.34
2024-01-07T09:52:47.838Z,97801.47
2024-01-07T09:55:28.440Z,97801.06
2024-01-07T09:57:55.518Z,97801.81
2024-01-07T10:00:22.490Z,97784.13
2024-01-07T10:02:49.720Z,97782.63
2024-01-07T10:05:16.729Z,97787.47
2024-01-07T10:07:43.746Z,97776.22
2024-01-07T10:10:18.623Z,97776.22
2024-01-07T10:12:49.377Z,97767.97
2024-01-07T10:15:17.540Z,97761.16
2024-01-07T10:17:44.851Z,97755.91
2024-01-07T10:20:14.411Z,97756.72
2024-01-07T10:22:41.623Z,97760.44
2024-01-07T10:25:09.014Z,97749.88
2024-01-07T10:27:37.478Z,97753.31
2024-01-07T10:30:05.694Z,97747.66
2024-01-07T10:32:32.662Z,97742.41
2024-01-07T10:35:06.324Z,97739.41
2024-01-07T10:37:35.176Z,97741.66
2024-01-07T10:40:06.172Z,97741.66
2024-01-07T10:42:34.025Z,97722.41
2024-01-07T10:45:05.813Z,97714.84
2024-01-07T10:47:39.112Z,97707.31
2024-01-07T10:50:09.753Z,97695.25
2024-01-07T10:52:40.699Z,97694.84
2024-01-07T10:55:14.082Z,97693.38
2024-01-07T10:57:46.085Z,97695.66
2024-01-07T11:00:22.419Z,97687.34
2024-01-07T11:03:18.997Z,97685.81
2024-01-07T11:08:51.802Z,97671.06
2024-01-07T11:11:25.101Z,97669.53
2024-01-07T11:13:52.764Z,97674.44
2024-01-07T11:16:45.255Z,97670.97
2024-01-07T11:19:16.235Z,97667.53
2024-01-07T11:21:43.578Z,97670.34
2024-01-07T11:24:10.611Z,97683.84
2024-01-07T11:26:42.113Z,97678.13
2024-01-07T11:29:12.127Z,97687.94
2024-01-07T11:31:45.498Z,97690.28
2024-01-07T11:34:43.602Z,97691.59
2024-01-07T11:37:15.052Z,97688.44
2024-01-07T11:39:46.946Z,97683.44
2024-01-07T11:42:14.807Z,97680.56
2024-01-07T11:44:55.277Z,97678.41
2024-01-07T11:47:24.860Z,97679.16
2024-01-07T11:49:53.296Z,97672.53
2024-01-07T11:52:21.371Z,97670.66
2024-01-07T11:54:49.229Z,97672.22
2024-01-07T11:57:16.445Z,97672.25
2024-01-07T11:59:45.641Z,97663.22
2024-01-07T12:02:13.199Z,97656.03
2024-01-07T12:04:40.572Z,97674.19
2024-01-07T12:07:08.655Z,97653.84
2024-01-07T12:09:36.654Z,97657.25
2024-01-07T12:12:06.368Z,97648.53
2024-01-07T12:14:33.770Z,97655.38
2024-01-07T12:17:00.686Z,97652.78
2024-01-07T12:19:28.573Z,97653.19
2024-01-07T12:22:08.054Z,97649.06
2024-01-07T12:24:36.548Z,97651.75
2024-01-07T12:27:08.419Z,97654.41
2024-01-07T12:29:36.525Z,97658.94
2024-01-07T12:32:07.034Z,97649.88
2024-01-07T12:34:34.716Z,97647.69
2024-01-07T12:37:03.570Z,97650.72
2024-01-07T12:39:30.913Z,97654.81
2024-01-07T12:41:58.289Z,97651.81
2024-01-07T12:44:30.027Z,97652.53
2024-01-07T12:46:57.572Z,97654.50
2024-01-07T12:49:25.899Z,97653.38
2024-01-07T12:51:53.546Z,97654.13
2024-01-07T12:54:22.166Z,97659.44
2024-01-07T12:56:51.455Z,97655.72
2024-01-07T12:59:18.605Z,97654.94
2024-01-07T13:01:45.937Z,97647.38
2024-01-07T13:04:15.662Z,97651.16
2024-01-07T13:06:42.840Z,97647.00
2024-01-07T13:09:10.465Z,97647.75
2024-01-07T13:11:38.141Z,97645.50
2024-01-07T13:14:05.622Z,97645.88
2024-01-07T13:16:34.346Z,97646.25
2024-01-07T13:19:02.776Z,97641.34
2024-01-07T13:21:30.575Z,97634.56
2024-01-07T13:24:01.984Z,97639.44
2024-01-07T13:26:31.083Z,97636.78
2024-01-07T13:28:58.684Z,97641.72
2024-01-07T13:31:26.398Z,97642.84
2024-01-07T13:33:54.715Z,97647.78
2024-01-07T13:36:22.026Z,97644.34
2024-01-07T13:38:51.334Z,97646.63
2024-01-07T13:41:18.737Z,97649.66
2024-01-07T13:43:47.884Z,97642.88
2024-01-07T13:46:16.421Z,97638.72
2024-01-07T13:48:45.236Z,97646.25
2024-01-07T13:51:12.677Z,97644.41
2024-01-07T13:53:40.518Z,97641.38
2024-01-07T13:56:08.999Z,97641.38
2024-01-07T13:58:38.208Z,97639.09
2024-01-07T14:01:06.770Z,97636.84
2024-01-07T14:03:34.628Z,97635.34
2024-01-07T14:06:04.678Z,97632.31
2024-01-07T14:08:31.985Z,97637.59
2024-01-07T14:10:59.105Z,97638.34
2024-01-07T14:13:26.064Z,97645.09
2024-01-07T14:15:56.391Z,97640.59
2024-01-07T14:18:25.807Z,97643.59
2024-01-07T14:20:55.026Z,97651.88
2024-01-07T14:23:21.949Z,97636.03
2024-01-07T14:25:49.930Z,97639.06
2024-01-07T14:28:17.408Z,97646.59
2024-01-07T14:30:44.642Z,97637.16
2024-01-07T14:33:11.725Z,97634.50
2024-01-07T14:35:39.097Z,97629.25
2024-01-07T14:38:08.260Z,97637.94
2024-01-07T14:40:37.441Z,97642.03
2024-01-07T14:43:05.820Z,97638.63
2024-01-07T14:45:33.099Z,97637.50
2024-01-07T14:48:00.201Z,97639.34
2024-01-07T14:50:33.771Z,97633.28
2024-01-07T14:53:06.676Z,97631.38
2024-01-07T14:55:34.052Z,97636.28
2024-01-07T14:58:01.475Z,97634.00
2024-01-07T15:00:28.885Z,97634.75
2024-01-07T15:02:58.553Z,97637.00
2024-01-07T15:05:26.664Z,97643.09
2024-01-07T15:07:54.770Z,97638.50
2024-01-07T15:10:22.438Z,97638.84
2024-01-07T15:12:58.082Z,97639.56
2024-01-07T15:15:31.483Z,97646.00
2024-01-07T15:17:59.002Z,97655.72
2024-01-07T15:20:29.291Z,97651.97
2024-01-07T15:22:57.929Z,97653.91
2024-01-07T15:25:27.865Z,97647.88
2024-01-07T15:27:56.911Z,97657.63
2024-01-07T15:30:23.956Z,97653.16
2024-01-07T15:32:53.381Z,97654.28
2024-01-07T15:35:22.026Z,97652.34
2024-01-07T15:37:49.955Z,97650.81
2024-01-07T15:40:17.100Z,97657.19
2024-01-07T15:42:44.192Z,97658.31
2024-01-07T15:45:11.601Z,97654.13
2024-01-07T15:47:40.320Z,97645.59
2024-01-07T15:50:08.310Z,97644.03
2024-01-07T15:52:35.845Z,97652.25
2024-01-07T15:55:03.813Z,97649.97
2024-01-07T15:57:31.916Z,97651.06
2024-01-07T16:00:02.484Z,97650.72
2024-01-07T16:02:31.797Z,97654.91
2024-01-07T16:04:59.949Z,97653.06
2024-01-07T16:07:28.420Z,97661.63
2024-01-07T16:09:55.590Z,97661.25
2024-01-07T16:12:24.521Z,97659.06
2024-01-07T16:14:54.187Z,97664.66
2024-01-07T16:17:22.944Z,97660.16
2024-01-07T16:19:53.016Z,97663.59
2024-01-07T16:22:23.047Z,97668.47
2024-01-07T16:24:50.344Z,97664.66
2024-01-07T16:27:19.010Z,97672.13
2024-01-07T16:29:46.762Z,97673.19
2024-01-07T16:32:16.585Z,97671.63
2024-01-07T16:34:45.547Z,97671.56
2024-01-07T16:37:12.738Z,97670.13
2024-01-07T16:39:40.839Z,97671.59
2024-01-07T16:42:08.627Z,97667.50
2024-01-07T16:44:38.006Z,97667.97
2024-01-07T16:47:09.058Z,97674.75
2024-01-07T16:50:19.350Z,97674.72
2024-01-07T16:52:27.068Z,97675.06
2024-01-07T16:54:55.974Z,97670.22
2024-01-07T16:57:23.125Z,97678.09
2024-01-07T16:59:53.454Z,97682.28
2024-01-07T17:02:21.863Z,97688.25
2024-01-07T17:04:57.087Z,97693.16
2024-01-07T17:07:28.864Z,97693.84
2024-01-07T17:09:56.014Z,97695.72
2024-01-07T17:12:23.251Z,97702.47
2024-01-07T17:14:53.250Z,97698.31
2024-01-07T17:17:21.860Z,97702.47
2024-01-07T17:19:49.902Z,97709.69
2024-01-07T17:22:19.991Z,97717.53
2024-01-07T17:24:47.763Z,97713.38
2024-01-07T17:27:34.857Z,97720.06
2024-01-07T17:30:02.035Z,97713.22
2024-01-07T17:32:29.562Z,97711.34
2024-01-07T17:34:57.736Z,97713.63
2024-01-07T17:37:27.216Z,97729.94
2024-01-07T17:39:57.446Z,97730.16
2024-01-07T17:42:28.122Z,97742.44
2024-01-07T17:44:58.819Z,97749.38
2024-01-07T17:47:27.214Z,97754.88
2024-01-07T17:49:55.519Z,97762.28
2024-01-07T17:52:26.371Z,97760.41
2024-01-07T17:55:08.120Z,97752.84
2024-01-07T17:57:37.820Z,97757.16
2024-01-07T18:00:12.105Z,97750.28
2024-01-07T18:02:41.517Z,97752.41
2024-01-07T18:05:11.125Z,97755.28
2024-01-07T18:07:40.048Z,97753.72
2024-01-07T18:10:12.480Z,97756.13
2024-01-07T18:12:47.580Z,97767.09
2024-01-07T18:15:16.605Z,97770.88
2024-01-07T18:17:47.340Z,97771.97
2024-01-07T18:20:16.000Z,97781.75
2024-01-07T18:22:44.141Z,97786.59
2024-01-07T18:25:16.081Z,97797.63
2024-01-07T18:27:45.660Z,97793.22
2024-01-07T18:30:15.535Z,97783.00
2024-01-07T18:32:46.589Z,97778.75
2024-01-07T18:35:18.986Z,97779.44
2024-01-07T18:37:51.097Z,97789.13
2024-01-07T18:40:22.268Z,97783.88
2024-01-07T18:42:49.811Z,97788.28
2024-01-07T18:45:16.956Z,97788.38
2024-01-07T18:47:45.464Z,97778.56
2024-01-07T18:50:13.398Z,97782.66
2024-01-07T18:52:40.548Z,97782.16
2024-01-07T18:55:10.388Z,97775.31
2024-01-07T18:57:43.620Z,97774.47
2024-01-07T19:00:14.901Z,97777.66
2024-01-07T19:02:42.528Z,97764.19
2024-01-07T19:05:11.696Z,97773.13
2024-01-07T19:07:44.299Z,97781.00
2024-01-07T19:10:12.188Z,97783.97
2024-01-07T19:12:41.627Z,97784.06
2024-01-07T19:15:09.612Z,97785.84
2024-01-07T19:17:39.025Z,97781.63
2024-01-07T19:20:07.456Z,97783.47
2024-01-07T19:22:38.033Z,97781.63
2024-01-07T19:25:06.140Z,97783.19
2024-01-07T19:27:34.668Z,97781.72
2024-01-07T19:30:07.389Z,97787.94
2024-01-07T19:32:38.948Z,97780.28
2024-01-07T19:35:07.024Z,97785.97
2024-01-07T19:37:34.696Z,97785.59
2024-01-07T19:40:04.207Z,97784.34
2024-01-07T19:42:32.860Z,97780.94
2024-01-07T19:45:00.282Z,97787.38
2024-01-07T19:47:29.187Z,97785.88
2024-01-07T19:49:56.702Z,97788.44
2024-01-07T19:52:25.319Z,97786.06
2024-01-07T19:54:53.761Z,97788.16
2024-01-07T19:57:22.558Z,97790.69
2024-01-07T19:59:50.903Z,97800.97
2024-01-07T20:02:18.161Z,97811.03
2024-01-07T20:04:56.516Z,97808.28
2024-01-07T20:07:24.462Z,97801.97
2024-01-07T20:09:53.244Z,97803.22
2024-01-07T20:12:23.594Z,97806.91
2024-01-07T20:14:53.029Z,97803.41
2024-01-07T20:17:20.268Z,97809.31
2024-01-07T20:19:50.931Z,97810.03
2024-01-07T20:22:18.236Z,97808.19
2024-01-07T20:24:45.277Z,97818.28
2024-01-07T20:27:13.162Z,97812.78
2024-01-07T20:29:45.987Z,97821.44
2024-01-07T20:32:14.596Z,97828.13
2024-01-07T20:34:41.954Z,97834.75
2024-01-07T20:37:10.786Z,97836.16
2024-01-07T20:39:39.652Z,97837.94
2024-01-07T20:42:10.452Z,97843.22
2024-01-07T20:44:40.962Z,97847.56
2024-01-07T20:47:10.896Z,97853.94
2024-01-07T20:49:39.434Z,97847.03
2024-01-07T20:52:07.394Z,97851.41
2024-01-07T20:54:41.798Z,97853.72
2024-01-07T20:57:10.686Z,97853.72
2024-01-07T20:59:42.621Z,97857.13
2024-01-07T21:02:12.369Z,97859.28
2024-01-07T21:04:43.486Z,97854.56
2024-01-07T21:07:11.602Z,97845.84
2024-01-07T21:09:41.031Z,97853.91
2024-01-07T21:12:09.785Z,97846.63
2024-01-07T21:14:37.381Z,97854.38
2024-01-07T21:17:05.342Z,97853.56
2024-01-07T21:19:32.575Z,97853.81
2024-01-07T21:22:02.353Z,97848.84
2024-01-07T21:24:32.572Z,97855.88
2024-01-07T21:27:01.159Z,97854.78
2024-01-07T21:29:29.219Z,97850.47
2024-01-07T21:31:56.409Z,97861.03
2024-01-07T21:34:23.531Z,97861.16
2024-01-07T21:36:52.481Z,97860.91
2024-01-07T21:39:19.912Z,97853.97
2024-01-07T21:41:48.071Z,97860.25
2024-01-07T21:44:16.802Z,97856.94
2024-01-07T21:46:48.231Z,97858.66
2024-01-07T21:49:16.861Z,97862.56
2024-01-07T21:51:48.136Z,97870.63
2024-01-07T21:54:18.594Z,97868.69
2024-01-07T21:56:47.907Z,97866.06
2024-01-07T21:59:16.726Z,97877.69
2024-01-07T22:01:44.218Z,97877.00
2024-01-07T22:04:11.377Z,97882.44
2024-01-07T22:06:41.088Z,97891.75
2024-01-07T22:09:08.482Z,97889.13
2024-01-07T22:11:36.331Z,97886.72
2024-01-07T22:14:04.485Z,97882.91
2024-01-07T22:16:31.540Z,97885.50
2024-01-07T22:18:58.631Z,97889.44
2024-01-07T22:21:25.874Z,97892.53
2024-01-07T22:23:55.288Z,97888.06
2024-01-07T22:26:24.096Z,97894.09
2024-01-07T22:28:54.182Z,97896.91
2024-01-07T22:31:21.790Z,97903.53
2024-01-07T22:33:49.174Z,97910.38
2024-01-07T22:36:16.246Z,97899.75
2024-01-07T22:38:43.251Z,97903.00
2024-01-07T22:41:10.407Z,97906.91
2024-01-07T22:43:38.699Z,97905.41
2024-01-07T22:46:06.498Z,97912.59
2024-01-07T22:48:35.879Z,97925.72
2024-01-07T22:51:03.175Z,97921.91
2024-01-07T22:53:31.878Z,97927.25
2024-01-07T22:55:58.892Z,97922.63
2024-01-07T22:58:25.972Z,97928.41
2024-01-07T23:00:53.743Z,97931.22
2024-01-07T23:03:21.911Z,97939.72
2024-01-07T23:05:49.476Z,97932.22
2024-01-07T23:08:18.085Z,97940.50
2024-01-07T23:10:45.361Z,97945.84
2024-01-07T23:13:12.399Z,97942.44
2024-01-07T23:15:39.374Z,97940.19
2024-01-07T23:18:06.851Z,97942.41
2024-01-07T23:20:35.705Z,97938.28
2024-01-07T23:23:02.958Z,97942.00
2024-01-07T23:25:30.061Z,97947.63
2024-01-07T23:27:57.231Z,97950.38
2024-01-07T23:30:24.417Z,97954.34
2024-01-07T23:32:52.304Z,97956.00
2024-01-07T23:35:19.362Z,97952.13
2024-01-07T23:37:46.350Z,97960.22
2024-01-07T23:40:13.668Z,97964.72
2024-01-07T23:42:40.734Z,97962.22
2024-01-07T23:45:08.376Z,97959.91
2024-01-07T23:47:38.574Z,97959.03
2024-01-07T23:50:08.335Z,97961.66
2024-01-07T23:52:35.345Z,97960.16
2024-01-07T23:55:02.295Z,97970.91
2024-01-07T23:57:29.242Z,97963.22
2024-01-07T23:59:56.480Z,97973.00
